Sansumifuku — JD2579 — position and weather

sailwx.info

Track history (hours):
 
Tides and Currents Weather Stations Pressure Air Temp Water Temp Dewpoint Dewpoint Depression Visibility Wind Speed Wind Dir Waves Ship Positions

Sansumifuku

Last reported at 2014-Aug-26 11:21 UTC. Time now 2014-Sep-01 14:05 UTC.
Position N 34°58' E 140°07'.

Length 75 m; draft 4.3 m.

Type: Cargo ship. MMSI: 431000426.

Date/timePositionNaut miles runAvg speedWind from/ knotsBaromVisibWave heightAir tempDewpointWater temp
2014-Aug-26 11:21N 34°58' E 140°07'18 9.9
2014-Aug-26 09:33N 34°55' E 139°46'1110.8
2014-Aug-26 08:33N 35°06' E 139°44'1111.1
2014-Aug-26 07:34N 35°17' E 139°45'9 8.8
2014-Aug-26 06:33N 35°25' E 139°47'7 6.7
2014-Aug-26 05:34N 35°22' E 139°53'0 0.0
2014-Aug-26 04:33N 35°22' E 139°53'0 0.0
2014-Aug-26 03:33N 35°22' E 139°53'0 0.0
2014-Aug-26 02:33N 35°22' E 139°53'0 0.0
2014-Aug-26 01:33N 35°22' E 139°53'0 0.0
2014-Aug-26 00:33N 35°22' E 139°53'0 0.0
2014-Aug-25 23:33N 35°22' E 139°53'0 0.0
2014-Aug-25 22:30N 35°22' E 139°53'0 0.0
2014-Aug-25 21:33N 35°22' E 139°53'2 2.1
2014-Aug-25 20:34N 35°23' E 139°51'1 0.9
2014-Aug-25 19:31N 35°23' E 139°51'0 0.1
2014-Aug-25 18:31N 35°23' E 139°51'0 0.0
2014-Aug-25 17:13N 35°23' E 139°51'0 0.1
2014-Aug-25 16:31N 35°23' E 139°51'0 0.0
2014-Aug-25 15:31N 35°23' E 139°51'0 0.0
2014-Aug-25 14:25N 35°23' E 139°51'0 0.1
2014-Aug-25 13:31N 35°23' E 139°50'0 0.0
2014-Aug-25 12:31N 35°23' E 139°50'0 0.0
2014-Aug-25 11:31N 35°23' E 139°50'0 0.0
2014-Aug-25 10:31N 35°23' E 139°50'0 0.0
2014-Aug-25 09:31N 35°23' E 139°50'0 0.0
2014-Aug-25 08:31N 35°23' E 139°50'0 0.1
2014-Aug-25 07:31N 35°23' E 139°51'2 1.6
2014-Aug-25 06:33N 35°25' E 139°50'1212.0
2014-Aug-25 05:33N 35°37' E 139°49'1 0.1
2014-Aug-24 22:33N 35°36' E 139°50'2 1.4
2014-Aug-24 21:28N 35°35' E 139°51'0 0.0
2014-Aug-24 20:31N 35°35' E 139°51'0 0.0
2014-Aug-24 19:31N 35°35' E 139°51'0 0.1
2014-Aug-24 18:28N 35°36' E 139°51'0 0.0
2014-Aug-24 17:31N 35°36' E 139°51'0 0.0
2014-Aug-24 16:31N 35°36' E 139°51'0 0.0
2014-Aug-24 15:28N 35°36' E 139°51'0 0.0
2014-Aug-24 14:28N 35°36' E 139°51'0 0.1
2014-Aug-24 13:31N 35°36' E 139°51'0 0.1
2014-Aug-24 12:31N 35°36' E 139°51'0 0.0
2014-Aug-24 11:31N 35°36' E 139°51'0 0.0
2014-Aug-24 10:31N 35°36' E 139°51'0 0.0
2014-Aug-24 09:31N 35°36' E 139°51'0 0.0
2014-Aug-24 08:28N 35°36' E 139°51'0 0.0
2014-Aug-24 07:28N 35°36' E 139°51'0 0.0
2014-Aug-24 06:31N 35°36' E 139°51'0 0.0
2014-Aug-24 05:28N 35°36' E 139°51'0 0.2
2014-Aug-24 04:33N 35°35' E 139°52'1111.3
2014-Aug-24 03:33N 35°25' E 139°47'1110.9
2014-Aug-24 02:33N 35°14' E 139°47'1111.3
2014-Aug-24 01:33N 35°03' E 139°42'237 9.5
2014-Aug-23 00:29N 34°18' E 134°59'1111.6
2014-Aug-22 23:33N 34°29' E 135°01'8 7.0
2014-Aug-22 22:26N 34°36' E 134°58'3 0.1
2014-Aug-21 09:29N 34°37' E 134°54'1314.3
2014-Aug-21 08:33N 34°36' E 135°10'1212.2
2014-Aug-21 07:33N 34°36' E 135°25'2 1.8
2014-Aug-21 06:30N 34°34' E 135°27'0 0.0
2014-Aug-21 05:24N 34°34' E 135°27'0 0.0
2014-Aug-21 04:21N 34°34' E 135°27'0 0.0
2014-Aug-21 03:33N 34°34' E 135°27'0 0.0
2014-Aug-21 02:27N 34°34' E 135°27'0 0.0
2014-Aug-21 01:32N 34°34' E 135°27'0 0.0
2014-Aug-21 00:26N 34°34' E 135°27'0 0.1
2014-Aug-20 23:20N 34°35' E 135°27'0 0.0
2014-Aug-20 20:26N 34°35' E 135°27'0 0.0
2014-Aug-20 19:08N 34°35' E 135°27'0 0.1
2014-Aug-20 18:26N 34°35' E 135°27'0 0.0
2014-Aug-20 17:08N 34°35' E 135°27'0 0.0
2014-Aug-20 16:20N 34°35' E 135°27'0 0.0
2014-Aug-20 13:20N 34°35' E 135°27'0 0.1
2014-Aug-20 12:14N 34°35' E 135°27'0 0.0
2014-Aug-20 10:32N 34°35' E 135°27'1 1.2
2014-Aug-20 09:33N 34°35' E 135°26'0 0.1
2014-Aug-20 08:12N 34°35' E 135°26'0 0.0
2014-Aug-20 07:30N 34°35' E 135°26'0 0.0
2014-Aug-20 06:06N 34°35' E 135°26'0 0.0
2014-Aug-20 05:24N 34°35' E 135°26'0 0.0
2014-Aug-20 04:06N 34°35' E 135°26'0 0.0
2014-Aug-20 03:24N 34°35' E 135°26'0 0.0
2014-Aug-20 02:18N 34°35' E 135°26'0 0.0
2014-Aug-20 01:30N 34°35' E 135°26'0 0.0
2014-Aug-20 00:24N 34°35' E 135°26'0 0.0
2014-Aug-19 23:30N 34°35' E 135°26'0 0.0
2014-Aug-19 22:30N 34°35' E 135°26'0 0.0
2014-Aug-19 21:30N 34°35' E 135°26'0 0.0
2014-Aug-19 20:30N 34°35' E 135°26'0 0.0
2014-Aug-19 19:24N 34°35' E 135°26'0 0.0
2014-Aug-19 18:30N 34°35' E 135°26'0 0.0
2014-Aug-19 17:30N 34°35' E 135°26'0 0.0
2014-Aug-19 16:24N 34°35' E 135°26'0 0.0
2014-Aug-19 15:12N 34°35' E 135°26'0 0.0
2014-Aug-19 14:30N 34°35' E 135°26'0 0.0
2014-Aug-19 13:24N 34°35' E 135°26'0 0.0
2014-Aug-19 12:24N 34°35' E 135°26'0 0.0
2014-Aug-19 11:24N 34°35' E 135°26'0 0.0
2014-Aug-19 10:30N 34°35' E 135°26'0 0.0
2014-Aug-19 09:30N 34°35' E 135°26'0 0.0
2014-Aug-19 08:30N 34°35' E 135°26'0 0.0
2014-Aug-19 07:30N 34°35' E 135°26'0 0.1
2014-Aug-19 06:33N 34°35' E 135°26'8 7.5
2014-Aug-19 05:33N 34°32' E 135°17'1512.4
2014-Aug-19 04:22N 34°21' E 135°05'226 8.7
2014-Aug-18 02:29N 34°51' E 139°37'2210.6
2014-Aug-18 00:24N 34°56' E 140°03'68 9.9
2014-Aug-17 17:32N 35°55' E 140°46'5 0.8
2014-Aug-17 11:09N 35°56' E 140°40'0 0.0
2014-Aug-17 10:30N 35°56' E 140°40'0 0.0
2014-Aug-17 09:33N 35°56' E 140°40'0 0.0
2014-Aug-17 08:27N 35°56' E 140°40'0 0.0
2014-Aug-17 05:30N 35°56' E 140°40'0 0.0
2014-Aug-17 04:33N 35°56' E 140°40'0 0.0
2014-Aug-17 01:21N 35°56' E 140°40'0 0.0
2014-Aug-16 19:33N 35°56' E 140°40'0 0.0
2014-Aug-16 16:30N 35°56' E 140°40'  
Track history (hours):
 
Tides and Currents Weather Stations Pressure Air Temp Water Temp Dewpoint Dewpoint Depression Visibility Wind Speed Wind Dir Waves Ship Positions

Sansumifuku

Last reported at 2014-Aug-26 11:21 UTC. Time now 2014-Sep-01 14:05 UTC.
Position N 34°58' E 140°07'.

Length 75 m; draft 4.3 m.

Type: Cargo ship. MMSI: 431000426.

Date/timePositionNaut miles runAvg speedWind from/ knotsBaromVisibWave heightAir tempDewpointWater temp
2014-Aug-26 11:21N 34°58' E 140°07'18 9.9
2014-Aug-26 09:33N 34°55' E 139°46'1110.8
2014-Aug-26 08:33N 35°06' E 139°44'1111.1
2014-Aug-26 07:34N 35°17' E 139°45'9 8.8
2014-Aug-26 06:33N 35°25' E 139°47'7 6.7
2014-Aug-26 05:34N 35°22' E 139°53'0 0.0
2014-Aug-26 04:33N 35°22' E 139°53'0 0.0
2014-Aug-26 03:33N 35°22' E 139°53'0 0.0
2014-Aug-26 02:33N 35°22' E 139°53'0 0.0
2014-Aug-26 01:33N 35°22' E 139°53'0 0.0
2014-Aug-26 00:33N 35°22' E 139°53'0 0.0
2014-Aug-25 23:33N 35°22' E 139°53'0 0.0
2014-Aug-25 22:30N 35°22' E 139°53'0 0.0
2014-Aug-25 21:33N 35°22' E 139°53'2 2.1
2014-Aug-25 20:34N 35°23' E 139°51'1 0.9
2014-Aug-25 19:31N 35°23' E 139°51'0 0.1
2014-Aug-25 18:31N 35°23' E 139°51'0 0.0
2014-Aug-25 17:13N 35°23' E 139°51'0 0.1
2014-Aug-25 16:31N 35°23' E 139°51'0 0.0
2014-Aug-25 15:31N 35°23' E 139°51'0 0.0
2014-Aug-25 14:25N 35°23' E 139°51'0 0.1
2014-Aug-25 13:31N 35°23' E 139°50'0 0.0
2014-Aug-25 12:31N 35°23' E 139°50'0 0.0
2014-Aug-25 11:31N 35°23' E 139°50'0 0.0
2014-Aug-25 10:31N 35°23' E 139°50'0 0.0
2014-Aug-25 09:31N 35°23' E 139°50'0 0.0
2014-Aug-25 08:31N 35°23' E 139°50'0 0.1
2014-Aug-25 07:31N 35°23' E 139°51'2 1.6
2014-Aug-25 06:33N 35°25' E 139°50'1212.0
2014-Aug-25 05:33N 35°37' E 139°49'1 0.1
2014-Aug-24 22:33N 35°36' E 139°50'2 1.4
2014-Aug-24 21:28N 35°35' E 139°51'0 0.0
2014-Aug-24 20:31N 35°35' E 139°51'0 0.0
2014-Aug-24 19:31N 35°35' E 139°51'0 0.1
2014-Aug-24 18:28N 35°36' E 139°51'0 0.0
2014-Aug-24 17:31N 35°36' E 139°51'0 0.0
2014-Aug-24 16:31N 35°36' E 139°51'0 0.0
2014-Aug-24 15:28N 35°36' E 139°51'0 0.0
2014-Aug-24 14:28N 35°36' E 139°51'0 0.1
2014-Aug-24 13:31N 35°36' E 139°51'0 0.1
2014-Aug-24 12:31N 35°36' E 139°51'0 0.0
2014-Aug-24 11:31N 35°36' E 139°51'0 0.0
2014-Aug-24 10:31N 35°36' E 139°51'0 0.0
2014-Aug-24 09:31N 35°36' E 139°51'0 0.0
2014-Aug-24 08:28N 35°36' E 139°51'0 0.0
2014-Aug-24 07:28N 35°36' E 139°51'0 0.0
2014-Aug-24 06:31N 35°36' E 139°51'0 0.0
2014-Aug-24 05:28N 35°36' E 139°51'0 0.2
2014-Aug-24 04:33N 35°35' E 139°52'1111.3
2014-Aug-24 03:33N 35°25' E 139°47'1110.9
2014-Aug-24 02:33N 35°14' E 139°47'1111.3
2014-Aug-24 01:33N 35°03' E 139°42'237 9.5
2014-Aug-23 00:29N 34°18' E 134°59'1111.6
2014-Aug-22 23:33N 34°29' E 135°01'8 7.0
2014-Aug-22 22:26N 34°36' E 134°58'3 0.1
2014-Aug-21 09:29N 34°37' E 134°54'1314.3
2014-Aug-21 08:33N 34°36' E 135°10'1212.2
2014-Aug-21 07:33N 34°36' E 135°25'2 1.8
2014-Aug-21 06:30N 34°34' E 135°27'0 0.0
2014-Aug-21 05:24N 34°34' E 135°27'0 0.0
2014-Aug-21 04:21N 34°34' E 135°27'0 0.0
2014-Aug-21 03:33N 34°34' E 135°27'0 0.0
2014-Aug-21 02:27N 34°34' E 135°27'0 0.0
2014-Aug-21 01:32N 34°34' E 135°27'0 0.0
2014-Aug-21 00:26N 34°34' E 135°27'0 0.1
2014-Aug-20 23:20N 34°35' E 135°27'0 0.0
2014-Aug-20 20:26N 34°35' E 135°27'0 0.0
2014-Aug-20 19:08N 34°35' E 135°27'0 0.1
2014-Aug-20 18:26N 34°35' E 135°27'0 0.0
2014-Aug-20 17:08N 34°35' E 135°27'0 0.0
2014-Aug-20 16:20N 34°35' E 135°27'0 0.0
2014-Aug-20 13:20N 34°35' E 135°27'0 0.1
2014-Aug-20 12:14N 34°35' E 135°27'0 0.0
2014-Aug-20 10:32N 34°35' E 135°27'1 1.2
2014-Aug-20 09:33N 34°35' E 135°26'0 0.1
2014-Aug-20 08:12N 34°35' E 135°26'0 0.0
2014-Aug-20 07:30N 34°35' E 135°26'0 0.0
2014-Aug-20 06:06N 34°35' E 135°26'0 0.0
2014-Aug-20 05:24N 34°35' E 135°26'0 0.0
2014-Aug-20 04:06N 34°35' E 135°26'0 0.0
2014-Aug-20 03:24N 34°35' E 135°26'0 0.0
2014-Aug-20 02:18N 34°35' E 135°26'0 0.0
2014-Aug-20 01:30N 34°35' E 135°26'0 0.0
2014-Aug-20 00:24N 34°35' E 135°26'0 0.0
2014-Aug-19 23:30N 34°35' E 135°26'0 0.0
2014-Aug-19 22:30N 34°35' E 135°26'0 0.0
2014-Aug-19 21:30N 34°35' E 135°26'0 0.0
2014-Aug-19 20:30N 34°35' E 135°26'0 0.0
2014-Aug-19 19:24N 34°35' E 135°26'0 0.0
2014-Aug-19 18:30N 34°35' E 135°26'0 0.0
2014-Aug-19 17:30N 34°35' E 135°26'0 0.0
2014-Aug-19 16:24N 34°35' E 135°26'0 0.0
2014-Aug-19 15:12N 34°35' E 135°26'0 0.0
2014-Aug-19 14:30N 34°35' E 135°26'0 0.0
2014-Aug-19 13:24N 34°35' E 135°26'0 0.0
2014-Aug-19 12:24N 34°35' E 135°26'0 0.0
2014-Aug-19 11:24N 34°35' E 135°26'0 0.0
2014-Aug-19 10:30N 34°35' E 135°26'0 0.0
2014-Aug-19 09:30N 34°35' E 135°26'0 0.0
2014-Aug-19 08:30N 34°35' E 135°26'0 0.0
2014-Aug-19 07:30N 34°35' E 135°26'0 0.1
2014-Aug-19 06:33N 34°35' E 135°26'8 7.5
2014-Aug-19 05:33N 34°32' E 135°17'1512.4
2014-Aug-19 04:22N 34°21' E 135°05'226 8.7
2014-Aug-18 02:29N 34°51' E 139°37'2210.6
2014-Aug-18 00:24N 34°56' E 140°03'68 9.9
2014-Aug-17 17:32N 35°55' E 140°46'5 0.8
2014-Aug-17 11:09N 35°56' E 140°40'0 0.0
2014-Aug-17 10:30N 35°56' E 140°40'0 0.0
2014-Aug-17 09:33N 35°56' E 140°40'0 0.0
2014-Aug-17 08:27N 35°56' E 140°40'0 0.0
2014-Aug-17 05:30N 35°56' E 140°40'0 0.0
2014-Aug-17 04:33N 35°56' E 140°40'0 0.0
2014-Aug-17 01:21N 35°56' E 140°40'0 0.0
2014-Aug-16 19:33N 35°56' E 140°40'0 0.0
2014-Aug-16 16:30N 35°56' E 140°40'  

Dump ship's entire track history